sensor_id;sensor_type;location;lat;lon;timestamp;P1;durP1;ratioP1;P2;durP2;ratioP2
8564;SDS011;4320;51.498;6.556;2023-10-08T00:02:18;12.45;;;4.07;;
8564;SDS011;4320;51.498;6.556;2023-10-08T00:04:47;9.50;;;4.55;;
8564;SDS011;4320;51.498;6.556;2023-10-08T00:07:15;7.07;;;4.20;;
8564;SDS011;4320;51.498;6.556;2023-10-08T00:09:46;8.10;;;4.10;;
8564;SDS011;4320;51.498;6.556;2023-10-08T00:12:12;7.53;;;4.40;;
8564;SDS011;4320;51.498;6.556;2023-10-08T00:14:38;8.80;;;4.05;;
8564;SDS011;4320;51.498;6.556;2023-10-08T00:17:10;6.20;;;4.05;;
8564;SDS011;4320;51.498;6.556;2023-10-08T00:19:39;5.88;;;3.65;;
8564;SDS011;4320;51.498;6.556;2023-10-08T00:22:07;8.38;;;4.35;;
8564;SDS011;4320;51.498;6.556;2023-10-08T00:24:35;7.10;;;4.10;;
8564;SDS011;4320;51.498;6.556;2023-10-08T00:27:03;7.22;;;4.05;;
8564;SDS011;4320;51.498;6.556;2023-10-08T00:29:31;9.77;;;4.03;;
8564;SDS011;4320;51.498;6.556;2023-10-08T00:31:57;8.65;;;4.45;;
8564;SDS011;4320;51.498;6.556;2023-10-08T00:34:23;7.80;;;4.32;;
8564;SDS011;4320;51.498;6.556;2023-10-08T00:36:49;9.93;;;4.18;;
8564;SDS011;4320;51.498;6.556;2023-10-08T00:39:17;5.28;;;3.90;;
8564;SDS011;4320;51.498;6.556;2023-10-08T00:41:50;7.57;;;4.30;;
8564;SDS011;4320;51.498;6.556;2023-10-08T00:44:23;6.43;;;4.18;;
8564;SDS011;4320;51.498;6.556;2023-10-08T00:46:54;10.10;;;4.63;;
8564;SDS011;4320;51.498;6.556;2023-10-08T00:49:22;9.48;;;5.18;;
8564;SDS011;4320;51.498;6.556;2023-10-08T00:52:08;6.30;;;4.07;;
8564;SDS011;4320;51.498;6.556;2023-10-08T00:54:36;9.05;;;4.38;;
8564;SDS011;4320;51.498;6.556;2023-10-08T00:57:34;6.47;;;4.30;;
8564;SDS011;4320;51.498;6.556;2023-10-08T01:00:07;12.70;;;4.10;;
8564;SDS011;4320;51.498;6.556;2023-10-08T01:02:41;8.45;;;4.72;;
8564;SDS011;4320;51.498;6.556;2023-10-08T01:05:25;10.82;;;4.60;;
8564;SDS011;4320;51.498;6.556;2023-10-08T01:07:53;8.45;;;4.30;;
8564;SDS011;4320;51.498;6.556;2023-10-08T01:10:21;9.55;;;4.47;;
8564;SDS011;4320;51.498;6.556;2023-10-08T01:12:49;7.03;;;4.40;;
8564;SDS011;4320;51.498;6.556;2023-10-08T01:15:40;8.13;;;4.82;;
8564;SDS011;4320;51.498;6.556;2023-10-08T01:18:09;6.05;;;4.07;;
8564;SDS011;4320;51.498;6.556;2023-10-08T01:20:42;11.90;;;4.47;;
8564;SDS011;4320;51.498;6.556;2023-10-08T01:23:13;9.55;;;4.68;;
8564;SDS011;4320;51.498;6.556;2023-10-08T01:25:45;7.65;;;4.68;;
8564;SDS011;4320;51.498;6.556;2023-10-08T01:28:15;8.77;;;4.78;;
8564;SDS011;4320;51.498;6.556;2023-10-08T01:31:08;8.05;;;4.53;;
8564;SDS011;4320;51.498;6.556;2023-10-08T01:33:37;9.35;;;4.55;;
8564;SDS011;4320;51.498;6.556;2023-10-08T01:36:03;7.90;;;4.55;;
8564;SDS011;4320;51.498;6.556;2023-10-08T01:38:30;10.32;;;5.00;;
8564;SDS011;4320;51.498;6.556;2023-10-08T01:40:57;8.07;;;4.63;;
8564;SDS011;4320;51.498;6.556;2023-10-08T01:43:28;12.15;;;5.05;;
8564;SDS011;4320;51.498;6.556;2023-10-08T01:45:54;8.45;;;4.68;;
8564;SDS011;4320;51.498;6.556;2023-10-08T01:48:20;6.32;;;3.97;;
8564;SDS011;4320;51.498;6.556;2023-10-08T01:50:56;11.65;;;5.20;;
8564;SDS011;4320;51.498;6.556;2023-10-08T01:53:33;7.70;;;4.55;;
8564;SDS011;4320;51.498;6.556;2023-10-08T01:56:00;7.97;;;4.53;;
8564;SDS011;4320;51.498;6.556;2023-10-08T01:58:26;12.18;;;4.95;;
8564;SDS011;4320;51.498;6.556;2023-10-08T02:00:53;10.77;;;4.55;;
8564;SDS011;4320;51.498;6.556;2023-10-08T02:03:23;9.68;;;4.60;;
8564;SDS011;4320;51.498;6.556;2023-10-08T02:05:49;10.15;;;5.25;;
8564;SDS011;4320;51.498;6.556;2023-10-08T02:08:18;12.13;;;5.38;;
8564;SDS011;4320;51.498;6.556;2023-10-08T02:10:45;6.80;;;4.22;;
8564;SDS011;4320;51.498;6.556;2023-10-08T02:13:14;8.27;;;4.45;;
8564;SDS011;4320;51.498;6.556;2023-10-08T02:15:43;13.30;;;5.57;;
8564;SDS011;4320;51.498;6.556;2023-10-08T02:18:10;9.85;;;4.78;;
8564;SDS011;4320;51.498;6.556;2023-10-08T02:20:36;11.38;;;4.82;;
8564;SDS011;4320;51.498;6.556;2023-10-08T02:23:01;11.93;;;5.20;;
8564;SDS011;4320;51.498;6.556;2023-10-08T02:25:30;9.05;;;4.80;;
8564;SDS011;4320;51.498;6.556;2023-10-08T02:27:56;10.93;;;5.47;;
8564;SDS011;4320;51.498;6.556;2023-10-08T02:30:22;9.45;;;4.82;;
8564;SDS011;4320;51.498;6.556;2023-10-08T02:32:48;13.23;;;5.20;;
8564;SDS011;4320;51.498;6.556;2023-10-08T02:35:14;10.38;;;5.07;;
8564;SDS011;4320;51.498;6.556;2023-10-08T02:37:40;10.02;;;4.95;;
8564;SDS011;4320;51.498;6.556;2023-10-08T02:40:07;12.40;;;5.10;;
8564;SDS011;4320;51.498;6.556;2023-10-08T02:42:52;10.48;;;5.28;;
8564;SDS011;4320;51.498;6.556;2023-10-08T02:45:25;12.32;;;5.00;;
8564;SDS011;4320;51.498;6.556;2023-10-08T02:47:52;9.27;;;4.82;;
8564;SDS011;4320;51.498;6.556;2023-10-08T02:50:22;11.43;;;5.72;;
8564;SDS011;4320;51.498;6.556;2023-10-08T02:52:48;11.98;;;4.93;;
8564;SDS011;4320;51.498;6.556;2023-10-08T02:55:17;11.18;;;5.07;;
8564;SDS011;4320;51.498;6.556;2023-10-08T02:58:02;11.60;;;4.88;;
8564;SDS011;4320;51.498;6.556;2023-10-08T03:00:28;12.57;;;5.03;;
8564;SDS011;4320;51.498;6.556;2023-10-08T03:03:00;9.43;;;4.75;;
8564;SDS011;4320;51.498;6.556;2023-10-08T03:05:34;10.98;;;5.22;;
8564;SDS011;4320;51.498;6.556;2023-10-08T03:08:01;10.80;;;5.22;;
8564;SDS011;4320;51.498;6.556;2023-10-08T03:10:27;9.18;;;4.93;;
8564;SDS011;4320;51.498;6.556;2023-10-08T03:12:58;8.13;;;5.10;;
8564;SDS011;4320;51.498;6.556;2023-10-08T03:15:31;8.65;;;4.68;;
8564;SDS011;4320;51.498;6.556;2023-10-08T03:18:11;10.25;;;4.97;;
8564;SDS011;4320;51.498;6.556;2023-10-08T03:20:39;6.70;;;4.20;;
8564;SDS011;4320;51.498;6.556;2023-10-08T03:23:14;8.98;;;4.90;;
8564;SDS011;4320;51.498;6.556;2023-10-08T03:25:58;12.35;;;5.18;;
8564;SDS011;4320;51.498;6.556;2023-10-08T03:28:25;8.65;;;4.75;;
8564;SDS011;4320;51.498;6.556;2023-10-08T03:30:53;8.15;;;4.65;;
8564;SDS011;4320;51.498;6.556;2023-10-08T03:33:29;12.38;;;4.65;;
8564;SDS011;4320;51.498;6.556;2023-10-08T03:35:59;12.25;;;5.03;;
8564;SDS011;4320;51.498;6.556;2023-10-08T03:40:57;9.20;;;4.57;;
8564;SDS011;4320;51.498;6.556;2023-10-08T03:43:28;10.13;;;4.78;;
8564;SDS011;4320;51.498;6.556;2023-10-08T03:46:07;9.57;;;4.95;;
8564;SDS011;4320;51.498;6.556;2023-10-08T03:48:40;11.48;;;4.97;;
8564;SDS011;4320;51.498;6.556;2023-10-08T03:51:09;6.50;;;4.38;;
8564;SDS011;4320;51.498;6.556;2023-10-08T03:53:37;10.52;;;4.80;;
8564;SDS011;4320;51.498;6.556;2023-10-08T03:56:07;9.82;;;4.55;;
8564;SDS011;4320;51.498;6.556;2023-10-08T03:58:39;8.65;;;5.00;;
8564;SDS011;4320;51.498;6.556;2023-10-08T04:01:11;7.85;;;4.70;;
8564;SDS011;4320;51.498;6.556;2023-10-08T04:03:43;9.23;;;4.80;;
8564;SDS011;4320;51.498;6.556;2023-10-08T04:06:21;8.55;;;4.88;;
8564;SDS011;4320;51.498;6.556;2023-10-08T04:09:03;11.30;;;5.13;;
8564;SDS011;4320;51.498;6.556;2023-10-08T04:11:45;8.63;;;4.70;;
8564;SDS011;4320;51.498;6.556;2023-10-08T04:14:13;11.15;;;4.63;;
8564;SDS011;4320;51.498;6.556;2023-10-08T04:16:41;11.52;;;5.15;;
8564;SDS011;4320;51.498;6.556;2023-10-08T04:19:08;9.02;;;5.00;;
8564;SDS011;4320;51.498;6.556;2023-10-08T04:21:34;8.30;;;4.70;;
8564;SDS011;4320;51.498;6.556;2023-10-08T04:24:00;9.05;;;4.95;;
8564;SDS011;4320;51.498;6.556;2023-10-08T04:26:33;10.48;;;4.70;;
8564;SDS011;4320;51.498;6.556;2023-10-08T04:29:04;16.23;;;5.10;;
8564;SDS011;4320;51.498;6.556;2023-10-08T04:31:32;8.70;;;4.38;;
8564;SDS011;4320;51.498;6.556;2023-10-08T04:34:05;9.88;;;4.90;;
8564;SDS011;4320;51.498;6.556;2023-10-08T04:36:47;8.73;;;4.88;;
8564;SDS011;4320;51.498;6.556;2023-10-08T04:39:20;9.38;;;4.97;;
8564;SDS011;4320;51.498;6.556;2023-10-08T04:42:12;9.63;;;4.78;;
8564;SDS011;4320;51.498;6.556;2023-10-08T04:44:39;10.90;;;4.80;;
8564;SDS011;4320;51.498;6.556;2023-10-08T04:47:06;7.30;;;4.90;;
8564;SDS011;4320;51.498;6.556;2023-10-08T04:49:51;12.77;;;4.53;;
8564;SDS011;4320;51.498;6.556;2023-10-08T04:52:18;7.22;;;4.57;;
8564;SDS011;4320;51.498;6.556;2023-10-08T04:54:45;7.10;;;4.85;;
8564;SDS011;4320;51.498;6.556;2023-10-08T04:57:17;12.48;;;5.10;;
8564;SDS011;4320;51.498;6.556;2023-10-08T04:59:43;15.63;;;5.20;;
8564;SDS011;4320;51.498;6.556;2023-10-08T05:02:11;13.05;;;5.07;;
8564;SDS011;4320;51.498;6.556;2023-10-08T05:04:54;9.00;;;4.50;;
8564;SDS011;4320;51.498;6.556;2023-10-08T05:07:43;8.32;;;4.47;;
8564;SDS011;4320;51.498;6.556;2023-10-08T05:10:11;8.88;;;5.13;;
8564;SDS011;4320;51.498;6.556;2023-10-08T05:12:50;10.95;;;5.63;;
8564;SDS011;4320;51.498;6.556;2023-10-08T05:15:28;10.63;;;4.60;;
8564;SDS011;4320;51.498;6.556;2023-10-08T05:17:58;7.50;;;4.43;;
8564;SDS011;4320;51.498;6.556;2023-10-08T05:20:38;11.32;;;5.60;;
8564;SDS011;4320;51.498;6.556;2023-10-08T05:23:13;9.05;;;4.82;;
8564;SDS011;4320;51.498;6.556;2023-10-08T05:25:49;11.88;;;4.88;;
8564;SDS011;4320;51.498;6.556;2023-10-08T05:28:39;9.98;;;4.90;;
8564;SDS011;4320;51.498;6.556;2023-10-08T05:31:23;10.07;;;4.60;;
8564;SDS011;4320;51.498;6.556;2023-10-08T05:34:07;7.93;;;5.22;;
8564;SDS011;4320;51.498;6.556;2023-10-08T05:36:42;9.90;;;4.70;;
8564;SDS011;4320;51.498;6.556;2023-10-08T05:39:26;7.60;;;4.40;;
8564;SDS011;4320;51.498;6.556;2023-10-08T05:42:05;10.73;;;5.40;;
8564;SDS011;4320;51.498;6.556;2023-10-08T05:44:56;13.05;;;5.03;;
8564;SDS011;4320;51.498;6.556;2023-10-08T05:47:34;7.45;;;4.78;;
8564;SDS011;4320;51.498;6.556;2023-10-08T05:50:00;7.78;;;4.45;;
8564;SDS011;4320;51.498;6.556;2023-10-08T05:52:47;8.43;;;4.95;;
8564;SDS011;4320;51.498;6.556;2023-10-08T05:55:22;8.77;;;4.85;;
8564;SDS011;4320;51.498;6.556;2023-10-08T05:57:55;8.20;;;4.65;;
8564;SDS011;4320;51.498;6.556;2023-10-08T06:00:39;10.88;;;5.25;;
8564;SDS011;4320;51.498;6.556;2023-10-08T06:03:28;8.23;;;4.75;;
8564;SDS011;4320;51.498;6.556;2023-10-08T06:06:13;7.38;;;4.70;;
8564;SDS011;4320;51.498;6.556;2023-10-08T06:08:39;7.63;;;4.50;;
8564;SDS011;4320;51.498;6.556;2023-10-08T06:11:37;9.63;;;5.22;;
8564;SDS011;4320;51.498;6.556;2023-10-08T06:14:09;9.52;;;5.13;;
8564;SDS011;4320;51.498;6.556;2023-10-08T06:17:01;6.22;;;4.50;;
8564;SDS011;4320;51.498;6.556;2023-10-08T06:19:50;10.65;;;4.88;;
8564;SDS011;4320;51.498;6.556;2023-10-08T06:22:17;10.63;;;5.65;;
8564;SDS011;4320;51.498;6.556;2023-10-08T06:24:44;8.20;;;4.82;;
8564;SDS011;4320;51.498;6.556;2023-10-08T06:27:09;11.00;;;5.03;;
8564;SDS011;4320;51.498;6.556;2023-10-08T06:29:41;10.63;;;5.32;;
8564;SDS011;4320;51.498;6.556;2023-10-08T06:32:09;10.95;;;5.07;;
8564;SDS011;4320;51.498;6.556;2023-10-08T06:34:36;14.63;;;5.72;;
8564;SDS011;4320;51.498;6.556;2023-10-08T06:37:05;8.18;;;5.28;;
8564;SDS011;4320;51.498;6.556;2023-10-08T06:39:33;10.55;;;5.57;;
8564;SDS011;4320;51.498;6.556;2023-10-08T06:42:12;13.82;;;5.97;;
8564;SDS011;4320;51.498;6.556;2023-10-08T06:44:39;9.25;;;5.43;;
8564;SDS011;4320;51.498;6.556;2023-10-08T06:47:07;9.63;;;5.70;;
8564;SDS011;4320;51.498;6.556;2023-10-08T06:49:34;10.93;;;5.55;;
8564;SDS011;4320;51.498;6.556;2023-10-08T06:52:01;11.15;;;5.75;;
8564;SDS011;4320;51.498;6.556;2023-10-08T06:54:27;12.40;;;6.00;;
8564;SDS011;4320;51.498;6.556;2023-10-08T06:56:55;11.13;;;5.38;;
8564;SDS011;4320;51.498;6.556;2023-10-08T06:59:21;8.50;;;5.43;;
8564;SDS011;4320;51.498;6.556;2023-10-08T07:01:48;10.15;;;5.30;;
8564;SDS011;4320;51.498;6.556;2023-10-08T07:04:16;11.73;;;5.57;;
8564;SDS011;4320;51.498;6.556;2023-10-08T07:06:44;11.52;;;5.35;;
8564;SDS011;4320;51.498;6.556;2023-10-08T07:09:13;12.90;;;5.07;;
8564;SDS011;4320;51.498;6.556;2023-10-08T07:12:08;8.77;;;5.82;;
8564;SDS011;4320;51.498;6.556;2023-10-08T07:14:39;9.48;;;5.38;;
8564;SDS011;4320;51.498;6.556;2023-10-08T07:17:06;12.20;;;5.60;;
8564;SDS011;4320;51.498;6.556;2023-10-08T07:19:33;12.65;;;5.85;;
8564;SDS011;4320;51.498;6.556;2023-10-08T07:22:07;11.18;;;5.72;;
8564;SDS011;4320;51.498;6.556;2023-10-08T07:24:53;8.85;;;6.22;;
8564;SDS011;4320;51.498;6.556;2023-10-08T07:27:19;9.57;;;5.43;;
8564;SDS011;4320;51.498;6.556;2023-10-08T07:29:55;8.98;;;5.60;;
8564;SDS011;4320;51.498;6.556;2023-10-08T07:32:20;12.65;;;6.18;;
8564;SDS011;4320;51.498;6.556;2023-10-08T07:34:46;13.13;;;6.43;;
8564;SDS011;4320;51.498;6.556;2023-10-08T07:37:12;9.77;;;4.75;;
8564;SDS011;4320;51.498;6.556;2023-10-08T07:39:39;12.10;;;5.90;;
8564;SDS011;4320;51.498;6.556;2023-10-08T07:42:11;14.38;;;5.82;;
8564;SDS011;4320;51.498;6.556;2023-10-08T07:44:37;10.02;;;5.65;;
8564;SDS011;4320;51.498;6.556;2023-10-08T07:47:03;13.18;;;6.13;;
8564;SDS011;4320;51.498;6.556;2023-10-08T07:49:33;15.02;;;6.43;;
8564;SDS011;4320;51.498;6.556;2023-10-08T07:52:01;12.43;;;6.63;;
8564;SDS011;4320;51.498;6.556;2023-10-08T07:54:26;12.90;;;5.97;;
8564;SDS011;4320;51.498;6.556;2023-10-08T07:56:59;11.93;;;6.18;;
8564;SDS011;4320;51.498;6.556;2023-10-08T07:59:37;12.80;;;6.10;;
8564;SDS011;4320;51.498;6.556;2023-10-08T08:02:07;12.77;;;6.45;;
8564;SDS011;4320;51.498;6.556;2023-10-08T08:04:37;11.15;;;6.93;;
8564;SDS011;4320;51.498;6.556;2023-10-08T08:07:05;20.27;;;7.47;;
8564;SDS011;4320;51.498;6.556;2023-10-08T08:09:31;13.65;;;6.38;;
8564;SDS011;4320;51.498;6.556;2023-10-08T08:12:03;13.30;;;7.00;;
8564;SDS011;4320;51.498;6.556;2023-10-08T08:14:36;10.93;;;6.45;;
8564;SDS011;4320;51.498;6.556;2023-10-08T08:17:05;12.32;;;6.97;;
8564;SDS011;4320;51.498;6.556;2023-10-08T08:19:39;14.40;;;7.38;;
8564;SDS011;4320;51.498;6.556;2023-10-08T08:22:18;18.45;;;7.53;;
8564;SDS011;4320;51.498;6.556;2023-10-08T08:24:55;10.98;;;7.30;;
8564;SDS011;4320;51.498;6.556;2023-10-08T08:27:30;12.57;;;7.65;;
8564;SDS011;4320;51.498;6.556;2023-10-08T08:29:59;15.00;;;8.10;;
8564;SDS011;4320;51.498;6.556;2023-10-08T08:32:40;14.75;;;8.13;;
8564;SDS011;4320;51.498;6.556;2023-10-08T08:35:09;14.57;;;7.63;;
8564;SDS011;4320;51.498;6.556;2023-10-08T08:37:37;18.38;;;8.10;;
8564;SDS011;4320;51.498;6.556;2023-10-08T08:40:03;15.45;;;7.38;;
8564;SDS011;4320;51.498;6.556;2023-10-08T08:42:50;13.63;;;7.00;;
8564;SDS011;4320;51.498;6.556;2023-10-08T08:45:23;24.90;;;7.95;;
8564;SDS011;4320;51.498;6.556;2023-10-08T08:47:49;19.25;;;6.45;;
8564;SDS011;4320;51.498;6.556;2023-10-08T08:50:16;14.82;;;6.22;;
8564;SDS011;4320;51.498;6.556;2023-10-08T08:52:43;11.68;;;6.15;;
8564;SDS011;4320;51.498;6.556;2023-10-08T08:55:10;13.00;;;6.38;;
8564;SDS011;4320;51.498;6.556;2023-10-08T08:57:43;12.55;;;6.68;;
8564;SDS011;4320;51.498;6.556;2023-10-08T09:00:13;11.48;;;7.25;;
8564;SDS011;4320;51.498;6.556;2023-10-08T09:02:40;11.00;;;6.18;;
8564;SDS011;4320;51.498;6.556;2023-10-08T09:05:06;15.02;;;7.22;;
8564;SDS011;4320;51.498;6.556;2023-10-08T09:07:55;15.07;;;7.45;;
8564;SDS011;4320;51.498;6.556;2023-10-08T09:10:28;11.63;;;6.93;;
8564;SDS011;4320;51.498;6.556;2023-10-08T09:12:54;15.95;;;6.63;;
8564;SDS011;4320;51.498;6.556;2023-10-08T09:15:24;17.05;;;7.95;;
8564;SDS011;4320;51.498;6.556;2023-10-08T09:17:54;15.48;;;10.05;;
8564;SDS011;4320;51.498;6.556;2023-10-08T09:20:21;20.98;;;12.73;;
8564;SDS011;4320;51.498;6.556;2023-10-08T09:23:06;28.02;;;13.80;;
8564;SDS011;4320;51.498;6.556;2023-10-08T09:25:33;29.25;;;17.40;;
8564;SDS011;4320;51.498;6.556;2023-10-08T09:27:59;34.10;;;17.10;;
8564;SDS011;4320;51.498;6.556;2023-10-08T09:30:25;29.65;;;13.40;;
8564;SDS011;4320;51.498;6.556;2023-10-08T09:32:54;36.03;;;19.00;;
8564;SDS011;4320;51.498;6.556;2023-10-08T09:35:20;24.38;;;11.63;;
8564;SDS011;4320;51.498;6.556;2023-10-08T09:37:49;23.70;;;11.43;;
8564;SDS011;4320;51.498;6.556;2023-10-08T09:40:16;24.90;;;12.77;;
8564;SDS011;4320;51.498;6.556;2023-10-08T09:42:46;19.25;;;10.68;;
8564;SDS011;4320;51.498;6.556;2023-10-08T09:45:13;30.40;;;15.77;;
8564;SDS011;4320;51.498;6.556;2023-10-08T09:47:38;18.95;;;9.27;;
8564;SDS011;4320;51.498;6.556;2023-10-08T09:50:12;19.00;;;8.27;;
8564;SDS011;4320;51.498;6.556;2023-10-08T09:52:42;29.63;;;15.07;;
8564;SDS011;4320;51.498;6.556;2023-10-08T09:55:13;25.58;;;11.75;;
8564;SDS011;4320;51.498;6.556;2023-10-08T09:57:43;16.23;;;9.05;;
8564;SDS011;4320;51.498;6.556;2023-10-08T10:00:09;16.45;;;9.90;;
8564;SDS011;4320;51.498;6.556;2023-10-08T10:02:40;22.50;;;11.02;;
8564;SDS011;4320;51.498;6.556;2023-10-08T10:05:10;20.98;;;11.55;;
8564;SDS011;4320;51.498;6.556;2023-10-08T10:07:36;20.45;;;10.95;;
8564;SDS011;4320;51.498;6.556;2023-10-08T10:10:24;20.15;;;11.75;;
8564;SDS011;4320;51.498;6.556;2023-10-08T10:13:02;25.98;;;13.23;;
8564;SDS011;4320;51.498;6.556;2023-10-08T10:15:36;19.63;;;12.73;;
8564;SDS011;4320;51.498;6.556;2023-10-08T10:20:38;18.35;;;11.57;;
8564;SDS011;4320;51.498;6.556;2023-10-08T10:23:55;18.73;;;10.50;;
8564;SDS011;4320;51.498;6.556;2023-10-08T10:26:05;19.95;;;10.18;;
8564;SDS011;4320;51.498;6.556;2023-10-08T10:31:40;14.32;;;8.57;;
8564;SDS011;4320;51.498;6.556;2023-10-08T10:34:12;16.23;;;7.80;;
8564;SDS011;4320;51.498;6.556;2023-10-08T10:36:41;13.40;;;7.57;;
8564;SDS011;4320;51.498;6.556;2023-10-08T10:39:09;12.10;;;7.88;;
8564;SDS011;4320;51.498;6.556;2023-10-08T10:41:44;13.75;;;7.68;;
8564;SDS011;4320;51.498;6.556;2023-10-08T10:44:11;18.02;;;9.02;;
8564;SDS011;4320;51.498;6.556;2023-10-08T10:46:41;15.15;;;8.85;;
8564;SDS011;4320;51.498;6.556;2023-10-08T10:49:08;17.80;;;9.18;;
8564;SDS011;4320;51.498;6.556;2023-10-08T10:51:42;15.35;;;10.25;;
8564;SDS011;4320;51.498;6.556;2023-10-08T10:54:09;22.95;;;12.05;;
8564;SDS011;4320;51.498;6.556;2023-10-08T10:56:44;19.17;;;12.07;;
8564;SDS011;4320;51.498;6.556;2023-10-08T10:59:12;18.05;;;8.85;;
8564;SDS011;4320;51.498;6.556;2023-10-08T11:01:49;16.48;;;9.65;;
8564;SDS011;4320;51.498;6.556;2023-10-08T11:04:30;24.45;;;17.52;;
8564;SDS011;4320;51.498;6.556;2023-10-08T11:06:56;17.27;;;11.23;;
8564;SDS011;4320;51.498;6.556;2023-10-08T11:09:26;22.60;;;12.77;;
8564;SDS011;4320;51.498;6.556;2023-10-08T11:12:02;21.63;;;14.65;;
8564;SDS011;4320;51.498;6.556;2023-10-08T11:14:36;23.27;;;16.15;;
8564;SDS011;4320;51.498;6.556;2023-10-08T11:17:10;29.80;;;18.40;;
8564;SDS011;4320;51.498;6.556;2023-10-08T11:19:41;24.15;;;13.68;;
8564;SDS011;4320;51.498;6.556;2023-10-08T11:22:14;28.05;;;16.33;;
8564;SDS011;4320;51.498;6.556;2023-10-08T11:24:46;23.15;;;14.82;;
8564;SDS011;4320;51.498;6.556;2023-10-08T11:27:16;25.50;;;16.33;;
8564;SDS011;4320;51.498;6.556;2023-10-08T11:29:53;22.17;;;14.10;;
8564;SDS011;4320;51.498;6.556;2023-10-08T11:32:23;28.73;;;19.92;;
8564;SDS011;4320;51.498;6.556;2023-10-08T11:34:57;27.92;;;16.45;;
8564;SDS011;4320;51.498;6.556;2023-10-08T11:37:44;31.60;;;19.67;;
8564;SDS011;4320;51.498;6.556;2023-10-08T11:40:21;22.48;;;13.85;;
8564;SDS011;4320;51.498;6.556;2023-10-08T11:42:53;23.77;;;13.20;;
8564;SDS011;4320;51.498;6.556;2023-10-08T11:45:23;22.85;;;16.42;;
8564;SDS011;4320;51.498;6.556;2023-10-08T11:47:53;39.20;;;24.80;;
8564;SDS011;4320;51.498;6.556;2023-10-08T11:50:27;22.70;;;14.57;;
8564;SDS011;4320;51.498;6.556;2023-10-08T11:52:59;22.70;;;15.13;;
8564;SDS011;4320;51.498;6.556;2023-10-08T11:55:30;28.55;;;16.90;;
8564;SDS011;4320;51.498;6.556;2023-10-08T11:58:00;24.25;;;14.70;;
8564;SDS011;4320;51.498;6.556;2023-10-08T12:00:34;23.00;;;14.95;;
8564;SDS011;4320;51.498;6.556;2023-10-08T12:03:10;22.58;;;14.57;;
8564;SDS011;4320;51.498;6.556;2023-10-08T12:05:46;24.25;;;13.95;;
8564;SDS011;4320;51.498;6.556;2023-10-08T12:08:16;22.02;;;15.27;;
8564;SDS011;4320;51.498;6.556;2023-10-08T12:10:46;24.52;;;16.25;;
8564;SDS011;4320;51.498;6.556;2023-10-08T12:13:13;22.58;;;14.95;;
8564;SDS011;4320;51.498;6.556;2023-10-08T12:15:41;24.23;;;17.10;;
8564;SDS011;4320;51.498;6.556;2023-10-08T12:18:09;32.22;;;17.13;;
8564;SDS011;4320;51.498;6.556;2023-10-08T12:20:50;23.23;;;15.15;;
8564;SDS011;4320;51.498;6.556;2023-10-08T12:23:16;22.05;;;15.10;;
8564;SDS011;4320;51.498;6.556;2023-10-08T12:25:54;24.00;;;15.18;;
8564;SDS011;4320;51.498;6.556;2023-10-08T12:28:23;25.17;;;15.32;;
8564;SDS011;4320;51.498;6.556;2023-10-08T12:30:49;20.13;;;12.98;;
8564;SDS011;4320;51.498;6.556;2023-10-08T12:33:19;21.60;;;12.77;;
8564;SDS011;4320;51.498;6.556;2023-10-08T12:35:48;21.08;;;12.23;;
8564;SDS011;4320;51.498;6.556;2023-10-08T12:38:14;17.17;;;11.73;;
8564;SDS011;4320;51.498;6.556;2023-10-08T12:40:40;15.88;;;11.02;;
8564;SDS011;4320;51.498;6.556;2023-10-08T12:43:21;15.77;;;9.60;;
8564;SDS011;4320;51.498;6.556;2023-10-08T12:45:52;15.75;;;10.07;;
8564;SDS011;4320;51.498;6.556;2023-10-08T12:48:22;15.18;;;8.68;;
8564;SDS011;4320;51.498;6.556;2023-10-08T12:50:51;11.57;;;8.05;;
8564;SDS011;4320;51.498;6.556;2023-10-08T12:53:21;13.30;;;7.43;;
8564;SDS011;4320;51.498;6.556;2023-10-08T12:55:51;14.48;;;6.63;;
8564;SDS011;4320;51.498;6.556;2023-10-08T12:58:23;11.57;;;6.70;;
8564;SDS011;4320;51.498;6.556;2023-10-08T13:00:54;11.30;;;6.40;;
8564;SDS011;4320;51.498;6.556;2023-10-08T13:03:28;8.15;;;5.57;;
8564;SDS011;4320;51.498;6.556;2023-10-08T13:05:56;10.60;;;6.07;;
8564;SDS011;4320;51.498;6.556;2023-10-08T13:08:29;9.80;;;6.30;;
8564;SDS011;4320;51.498;6.556;2023-10-08T13:10:56;9.65;;;6.18;;
8564;SDS011;4320;51.498;6.556;2023-10-08T13:13:26;9.88;;;6.40;;
8564;SDS011;4320;51.498;6.556;2023-10-08T13:15:52;9.15;;;6.45;;
8564;SDS011;4320;51.498;6.556;2023-10-08T13:18:24;10.63;;;5.80;;
8564;SDS011;4320;51.498;6.556;2023-10-08T13:20:53;9.98;;;5.78;;
8564;SDS011;4320;51.498;6.556;2023-10-08T13:23:19;10.02;;;5.57;;
8564;SDS011;4320;51.498;6.556;2023-10-08T13:25:51;11.80;;;5.68;;
8564;SDS011;4320;51.498;6.556;2023-10-08T13:28:21;8.63;;;5.15;;
8564;SDS011;4320;51.498;6.556;2023-10-08T13:30:48;7.93;;;5.45;;
8564;SDS011;4320;51.498;6.556;2023-10-08T13:33:20;12.52;;;5.53;;
8564;SDS011;4320;51.498;6.556;2023-10-08T13:35:49;10.15;;;5.72;;
8564;SDS011;4320;51.498;6.556;2023-10-08T13:38:18;8.05;;;5.15;;
8564;SDS011;4320;51.498;6.556;2023-10-08T13:40:47;10.05;;;5.05;;
8564;SDS011;4320;51.498;6.556;2023-10-08T13:43:34;8.40;;;5.35;;
8564;SDS011;4320;51.498;6.556;2023-10-08T13:48:29;10.18;;;5.03;;
8564;SDS011;4320;51.498;6.556;2023-10-08T13:50:59;13.88;;;6.32;;
8564;SDS011;4320;51.498;6.556;2023-10-08T13:53:25;14.27;;;6.78;;
8564;SDS011;4320;51.498;6.556;2023-10-08T13:55:55;19.88;;;8.05;;
8564;SDS011;4320;51.498;6.556;2023-10-08T13:58:26;13.95;;;6.68;;
8564;SDS011;4320;51.498;6.556;2023-10-08T14:00:53;15.57;;;7.88;;
8564;SDS011;4320;51.498;6.556;2023-10-08T14:03:19;12.45;;;7.60;;
8564;SDS011;4320;51.498;6.556;2023-10-08T14:05:48;11.70;;;6.35;;
8564;SDS011;4320;51.498;6.556;2023-10-08T14:08:19;16.52;;;6.35;;
8564;SDS011;4320;51.498;6.556;2023-10-08T14:10:45;10.35;;;6.40;;
8564;SDS011;4320;51.498;6.556;2023-10-08T14:13:13;11.60;;;6.32;;
8564;SDS011;4320;51.498;6.556;2023-10-08T14:15:44;11.90;;;6.80;;
8564;SDS011;4320;51.498;6.556;2023-10-08T14:18:13;11.27;;;6.05;;
8564;SDS011;4320;51.498;6.556;2023-10-08T14:20:44;12.40;;;6.07;;
8564;SDS011;4320;51.498;6.556;2023-10-08T14:23:12;9.27;;;5.40;;
8564;SDS011;4320;51.498;6.556;2023-10-08T14:25:41;8.93;;;5.40;;
8564;SDS011;4320;51.498;6.556;2023-10-08T14:28:10;10.43;;;5.35;;
8564;SDS011;4320;51.498;6.556;2023-10-08T14:30:46;9.15;;;4.93;;
8564;SDS011;4320;51.498;6.556;2023-10-08T14:33:21;16.02;;;8.93;;
8564;SDS011;4320;51.498;6.556;2023-10-08T14:35:51;10.95;;;6.50;;
8564;SDS011;4320;51.498;6.556;2023-10-08T14:38:36;7.10;;;4.95;;
8564;SDS011;4320;51.498;6.556;2023-10-08T14:41:20;9.38;;;4.95;;
8564;SDS011;4320;51.498;6.556;2023-10-08T14:44:05;8.82;;;5.35;;
8564;SDS011;4320;51.498;6.556;2023-10-08T14:46:31;9.98;;;5.45;;
8564;SDS011;4320;51.498;6.556;2023-10-08T14:48:59;10.15;;;5.75;;
8564;SDS011;4320;51.498;6.556;2023-10-08T14:51:27;29.75;;;14.90;;
8564;SDS011;4320;51.498;6.556;2023-10-08T14:53:52;13.32;;;7.82;;
8564;SDS011;4320;51.498;6.556;2023-10-08T14:56:18;15.68;;;8.80;;
8564;SDS011;4320;51.498;6.556;2023-10-08T14:58:44;8.65;;;4.72;;
8564;SDS011;4320;51.498;6.556;2023-10-08T15:01:13;10.95;;;4.78;;
8564;SDS011;4320;51.498;6.556;2023-10-08T15:03:39;9.18;;;5.15;;
8564;SDS011;4320;51.498;6.556;2023-10-08T15:06:05;10.90;;;4.93;;
8564;SDS011;4320;51.498;6.556;2023-10-08T15:08:32;8.32;;;4.53;;
8564;SDS011;4320;51.498;6.556;2023-10-08T15:10:58;18.75;;;8.82;;
8564;SDS011;4320;51.498;6.556;2023-10-08T15:13:25;10.35;;;5.30;;
8564;SDS011;4320;51.498;6.556;2023-10-08T15:15:51;11.65;;;7.40;;
8564;SDS011;4320;51.498;6.556;2023-10-08T15:18:19;14.65;;;7.53;;
8564;SDS011;4320;51.498;6.556;2023-10-08T15:20:47;8.85;;;5.47;;
8564;SDS011;4320;51.498;6.556;2023-10-08T15:23:14;12.82;;;5.75;;
8564;SDS011;4320;51.498;6.556;2023-10-08T15:25:42;8.63;;;5.30;;
8564;SDS011;4320;51.498;6.556;2023-10-08T15:28:07;11.55;;;7.13;;
8564;SDS011;4320;51.498;6.556;2023-10-08T15:30:33;9.18;;;5.20;;
8564;SDS011;4320;51.498;6.556;2023-10-08T15:32:59;8.65;;;4.93;;
8564;SDS011;4320;51.498;6.556;2023-10-08T15:35:24;6.32;;;4.03;;
8564;SDS011;4320;51.498;6.556;2023-10-08T15:37:50;9.73;;;4.22;;
8564;SDS011;4320;51.498;6.556;2023-10-08T15:40:16;9.15;;;4.60;;